sensor_id;sensor_type;location;lat;lon;timestamp;P1;durP1;ratioP1;P2;durP2;ratioP2
66189;SDS011;52992;52.084;5.412;2023-05-27T00:01:59;52.93;;;49.83;;
66189;SDS011;52992;52.084;5.412;2023-05-27T00:04:26;53.97;;;50.83;;
66189;SDS011;52992;52.084;5.412;2023-05-27T00:06:53;56.90;;;53.77;;
66189;SDS011;52992;52.084;5.412;2023-05-27T00:09:20;56.70;;;53.37;;
66189;SDS011;52992;52.084;5.412;2023-05-27T00:11:47;62.97;;;59.10;;
66189;SDS011;52992;52.084;5.412;2023-05-27T00:14:14;60.40;;;56.80;;
66189;SDS011;52992;52.084;5.412;2023-05-27T00:16:43;60.23;;;57.07;;
66189;SDS011;52992;52.084;5.412;2023-05-27T00:19:10;64.77;;;61.63;;
66189;SDS011;52992;52.084;5.412;2023-05-27T00:21:37;65.53;;;62.07;;
66189;SDS011;52992;52.084;5.412;2023-05-27T00:24:04;65.13;;;61.73;;
66189;SDS011;52992;52.084;5.412;2023-05-27T00:26:31;66.23;;;62.93;;
66189;SDS011;52992;52.084;5.412;2023-05-27T00:28:59;70.13;;;66.53;;
66189;SDS011;52992;52.084;5.412;2023-05-27T00:31:26;73.60;;;69.67;;
66189;SDS011;52992;52.084;5.412;2023-05-27T00:33:53;65.60;;;61.73;;
66189;SDS011;52992;52.084;5.412;2023-05-27T00:36:20;64.20;;;60.50;;
66189;SDS011;52992;52.084;5.412;2023-05-27T00:38:47;72.40;;;68.83;;
66189;SDS011;52992;52.084;5.412;2023-05-27T00:41:14;70.07;;;66.87;;
66189;SDS011;52992;52.084;5.412;2023-05-27T00:43:41;70.50;;;66.83;;
66189;SDS011;52992;52.084;5.412;2023-05-27T00:46:08;67.83;;;64.63;;
66189;SDS011;52992;52.084;5.412;2023-05-27T00:48:35;61.27;;;57.57;;
66189;SDS011;52992;52.084;5.412;2023-05-27T00:51:03;58.57;;;55.67;;
66189;SDS011;52992;52.084;5.412;2023-05-27T00:53:31;62.00;;;58.80;;
66189;SDS011;52992;52.084;5.412;2023-05-27T00:56:08;68.87;;;65.37;;
66189;SDS011;52992;52.084;5.412;2023-05-27T00:58:36;66.83;;;63.33;;
66189;SDS011;52992;52.084;5.412;2023-05-27T01:01:04;64.43;;;61.03;;
66189;SDS011;52992;52.084;5.412;2023-05-27T01:03:31;69.60;;;66.00;;
66189;SDS011;52992;52.084;5.412;2023-05-27T01:11:43;63.60;;;60.47;;
66189;SDS011;52992;52.084;5.412;2023-05-27T01:14:26;66.17;;;62.83;;
66189;SDS011;52992;52.084;5.412;2023-05-27T01:16:54;60.00;;;57.03;;
66189;SDS011;52992;52.084;5.412;2023-05-27T01:19:28;56.33;;;53.30;;
66189;SDS011;52992;52.084;5.412;2023-05-27T01:22:00;56.07;;;52.73;;
66189;SDS011;52992;52.084;5.412;2023-05-27T01:24:28;53.80;;;50.93;;
66189;SDS011;52992;52.084;5.412;2023-05-27T01:26:54;56.90;;;53.97;;
66189;SDS011;52992;52.084;5.412;2023-05-27T01:29:28;60.27;;;57.13;;
66189;SDS011;52992;52.084;5.412;2023-05-27T01:32:02;58.73;;;55.77;;
66189;SDS011;52992;52.084;5.412;2023-05-27T01:34:56;58.53;;;55.83;;
66189;SDS011;52992;52.084;5.412;2023-05-27T01:37:34;58.27;;;55.37;;
66189;SDS011;52992;52.084;5.412;2023-05-27T01:40:03;65.00;;;61.70;;
66189;SDS011;52992;52.084;5.412;2023-05-27T01:42:33;57.83;;;54.60;;
66189;SDS011;52992;52.084;5.412;2023-05-27T01:45:03;61.60;;;58.07;;
66189;SDS011;52992;52.084;5.412;2023-05-27T01:47:32;60.07;;;56.93;;
66189;SDS011;52992;52.084;5.412;2023-05-27T01:49:59;62.30;;;58.93;;
66189;SDS011;52992;52.084;5.412;2023-05-27T01:52:27;63.23;;;59.73;;
66189;SDS011;52992;52.084;5.412;2023-05-27T01:54:54;64.17;;;60.80;;
66189;SDS011;52992;52.084;5.412;2023-05-27T01:57:24;63.53;;;59.80;;
66189;SDS011;52992;52.084;5.412;2023-05-27T01:59:51;62.83;;;59.97;;
66189;SDS011;52992;52.084;5.412;2023-05-27T02:02:18;57.80;;;54.70;;
66189;SDS011;52992;52.084;5.412;2023-05-27T02:04:48;61.73;;;58.33;;
66189;SDS011;52992;52.084;5.412;2023-05-27T02:07:16;57.17;;;54.10;;
66189;SDS011;52992;52.084;5.412;2023-05-27T02:09:43;67.83;;;64.20;;
66189;SDS011;52992;52.084;5.412;2023-05-27T02:12:11;67.50;;;64.50;;
66189;SDS011;52992;52.084;5.412;2023-05-27T02:14:38;65.97;;;61.93;;
66189;SDS011;52992;52.084;5.412;2023-05-27T02:17:05;61.70;;;58.80;;
66189;SDS011;52992;52.084;5.412;2023-05-27T02:19:33;59.80;;;57.00;;
66189;SDS011;52992;52.084;5.412;2023-05-27T02:22:06;62.90;;;59.97;;
66189;SDS011;52992;52.084;5.412;2023-05-27T02:24:34;61.73;;;58.87;;
66189;SDS011;52992;52.084;5.412;2023-05-27T02:27:01;62.30;;;59.60;;
66189;SDS011;52992;52.084;5.412;2023-05-27T02:29:28;68.63;;;65.23;;
66189;SDS011;52992;52.084;5.412;2023-05-27T02:31:56;78.73;;;75.13;;
66189;SDS011;52992;52.084;5.412;2023-05-27T02:34:24;81.17;;;76.60;;
66189;SDS011;52992;52.084;5.412;2023-05-27T02:36:51;96.17;;;91.87;;
66189;SDS011;52992;52.084;5.412;2023-05-27T02:39:18;115.37;;;110.20;;
66189;SDS011;52992;52.084;5.412;2023-05-27T02:41:45;128.43;;;122.83;;
66189;SDS011;52992;52.084;5.412;2023-05-27T02:44:12;123.13;;;117.67;;
66189;SDS011;52992;52.084;5.412;2023-05-27T02:46:39;118.67;;;113.20;;
66189;SDS011;52992;52.084;5.412;2023-05-27T02:49:06;114.80;;;109.70;;
66189;SDS011;52992;52.084;5.412;2023-05-27T02:51:33;120.07;;;114.90;;
66189;SDS011;52992;52.084;5.412;2023-05-27T02:54:00;126.13;;;120.50;;
66189;SDS011;52992;52.084;5.412;2023-05-27T02:56:27;126.57;;;120.77;;
66189;SDS011;52992;52.084;5.412;2023-05-27T02:58:54;121.13;;;115.77;;
66189;SDS011;52992;52.084;5.412;2023-05-27T03:01:21;122.80;;;117.50;;
66189;SDS011;52992;52.084;5.412;2023-05-27T03:03:48;119.70;;;114.50;;
66189;SDS011;52992;52.084;5.412;2023-05-27T03:06:15;113.67;;;108.87;;
66189;SDS011;52992;52.084;5.412;2023-05-27T03:08:42;108.40;;;103.70;;
66189;SDS011;52992;52.084;5.412;2023-05-27T03:11:09;114.60;;;109.17;;
66189;SDS011;52992;52.084;5.412;2023-05-27T03:13:36;128.30;;;122.37;;
66189;SDS011;52992;52.084;5.412;2023-05-27T03:16:03;144.33;;;138.40;;
66189;SDS011;52992;52.084;5.412;2023-05-27T03:18:32;146.40;;;140.43;;
66189;SDS011;52992;52.084;5.412;2023-05-27T03:20:59;147.37;;;141.03;;
66189;SDS011;52992;52.084;5.412;2023-05-27T03:23:26;153.47;;;147.10;;
66189;SDS011;52992;52.084;5.412;2023-05-27T03:25:52;154.53;;;147.70;;
66189;SDS011;52992;52.084;5.412;2023-05-27T03:28:19;146.90;;;140.63;;
66189;SDS011;52992;52.084;5.412;2023-05-27T03:30:47;149.03;;;142.40;;
66189;SDS011;52992;52.084;5.412;2023-05-27T03:33:27;152.50;;;146.00;;
66189;SDS011;52992;52.084;5.412;2023-05-27T03:35:53;145.97;;;139.97;;
66189;SDS011;52992;52.084;5.412;2023-05-27T03:38:22;159.00;;;152.03;;
66189;SDS011;52992;52.084;5.412;2023-05-27T03:40:49;153.97;;;146.83;;
66189;SDS011;52992;52.084;5.412;2023-05-27T03:43:16;139.73;;;133.63;;
66189;SDS011;52992;52.084;5.412;2023-05-27T03:45:43;142.70;;;136.10;;
66189;SDS011;52992;52.084;5.412;2023-05-27T03:48:10;144.30;;;138.30;;
66189;SDS011;52992;52.084;5.412;2023-05-27T03:50:37;151.03;;;144.73;;
66189;SDS011;52992;52.084;5.412;2023-05-27T03:53:07;149.33;;;142.73;;
66189;SDS011;52992;52.084;5.412;2023-05-27T03:55:34;153.03;;;146.53;;
66189;SDS011;52992;52.084;5.412;2023-05-27T03:58:00;144.80;;;138.47;;
66189;SDS011;52992;52.084;5.412;2023-05-27T04:00:27;149.33;;;142.87;;
66189;SDS011;52992;52.084;5.412;2023-05-27T04:02:54;162.37;;;155.37;;
66189;SDS011;52992;52.084;5.412;2023-05-27T04:05:22;176.17;;;168.73;;
66189;SDS011;52992;52.084;5.412;2023-05-27T04:07:49;175.47;;;168.07;;
66189;SDS011;52992;52.084;5.412;2023-05-27T04:10:18;163.67;;;156.80;;
66189;SDS011;52992;52.084;5.412;2023-05-27T04:12:45;161.40;;;154.37;;
66189;SDS011;52992;52.084;5.412;2023-05-27T04:15:12;171.07;;;163.50;;
66189;SDS011;52992;52.084;5.412;2023-05-27T04:17:39;165.33;;;157.90;;
66189;SDS011;52992;52.084;5.412;2023-05-27T04:20:07;166.50;;;158.97;;
66189;SDS011;52992;52.084;5.412;2023-05-27T04:22:43;164.00;;;156.27;;
66189;SDS011;52992;52.084;5.412;2023-05-27T04:25:10;172.90;;;164.70;;
66189;SDS011;52992;52.084;5.412;2023-05-27T04:27:56;167.17;;;160.00;;
66189;SDS011;52992;52.084;5.412;2023-05-27T04:30:25;165.10;;;157.93;;
66189;SDS011;52992;52.084;5.412;2023-05-27T04:32:53;182.47;;;174.97;;
66189;SDS011;52992;52.084;5.412;2023-05-27T04:35:21;181.30;;;174.07;;
66189;SDS011;52992;52.084;5.412;2023-05-27T04:37:49;187.90;;;180.00;;
66189;SDS011;52992;52.084;5.412;2023-05-27T04:40:18;193.97;;;186.17;;
66189;SDS011;52992;52.084;5.412;2023-05-27T04:43:18;188.93;;;180.60;;
66189;SDS011;52992;52.084;5.412;2023-05-27T04:45:46;227.73;;;218.17;;
66189;SDS011;52992;52.084;5.412;2023-05-27T04:48:15;234.60;;;225.50;;
66189;SDS011;52992;52.084;5.412;2023-05-27T04:50:43;222.93;;;213.97;;
66189;SDS011;52992;52.084;5.412;2023-05-27T04:53:11;246.00;;;236.00;;
66189;SDS011;52992;52.084;5.412;2023-05-27T04:55:38;209.97;;;201.13;;
66189;SDS011;52992;52.084;5.412;2023-05-27T04:58:05;231.73;;;222.83;;
66189;SDS011;52992;52.084;5.412;2023-05-27T05:00:32;218.97;;;210.03;;
66189;SDS011;52992;52.084;5.412;2023-05-27T05:03:05;199.93;;;191.70;;
66189;SDS011;52992;52.084;5.412;2023-05-27T05:05:34;199.97;;;191.47;;
66189;SDS011;52992;52.084;5.412;2023-05-27T05:08:02;199.70;;;191.80;;
66189;SDS011;52992;52.084;5.412;2023-05-27T05:10:31;230.70;;;221.03;;
66189;SDS011;52992;52.084;5.412;2023-05-27T05:12:58;194.00;;;185.50;;
66189;SDS011;52992;52.084;5.412;2023-05-27T05:15:25;179.00;;;171.57;;
66189;SDS011;52992;52.084;5.412;2023-05-27T05:17:54;151.00;;;143.33;;
66189;SDS011;52992;52.084;5.412;2023-05-27T05:20:24;118.20;;;113.07;;
66189;SDS011;52992;52.084;5.412;2023-05-27T05:22:51;117.97;;;112.33;;
66189;SDS011;52992;52.084;5.412;2023-05-27T05:25:18;134.53;;;128.80;;
66189;SDS011;52992;52.084;5.412;2023-05-27T05:27:48;114.23;;;108.50;;
66189;SDS011;52992;52.084;5.412;2023-05-27T05:30:15;122.60;;;117.03;;
66189;SDS011;52992;52.084;5.412;2023-05-27T05:32:42;144.90;;;138.53;;
66189;SDS011;52992;52.084;5.412;2023-05-27T05:35:09;141.10;;;134.30;;
66189;SDS011;52992;52.084;5.412;2023-05-27T05:37:40;126.00;;;120.33;;
66189;SDS011;52992;52.084;5.412;2023-05-27T05:40:08;117.23;;;112.13;;
66189;SDS011;52992;52.084;5.412;2023-05-27T05:42:43;127.33;;;121.43;;
66189;SDS011;52992;52.084;5.412;2023-05-27T05:45:09;128.57;;;122.00;;
66189;SDS011;52992;52.084;5.412;2023-05-27T05:47:40;123.00;;;117.40;;
66189;SDS011;52992;52.084;5.412;2023-05-27T05:50:12;97.83;;;93.17;;
66189;SDS011;52992;52.084;5.412;2023-05-27T05:52:39;102.43;;;97.47;;
66189;SDS011;52992;52.084;5.412;2023-05-27T05:55:06;99.43;;;94.70;;
66189;SDS011;52992;52.084;5.412;2023-05-27T05:57:34;97.37;;;92.80;;
66189;SDS011;52992;52.084;5.412;2023-05-27T06:00:03;91.53;;;86.87;;
66189;SDS011;52992;52.084;5.412;2023-05-27T06:02:43;77.67;;;73.63;;
66189;SDS011;52992;52.084;5.412;2023-05-27T06:05:17;87.07;;;82.73;;
66189;SDS011;52992;52.084;5.412;2023-05-27T06:07:44;88.57;;;84.07;;
66189;SDS011;52992;52.084;5.412;2023-05-27T06:10:12;76.73;;;73.10;;
66189;SDS011;52992;52.084;5.412;2023-05-27T06:12:42;86.27;;;82.00;;
66189;SDS011;52992;52.084;5.412;2023-05-27T06:15:09;88.90;;;84.43;;
66189;SDS011;52992;52.084;5.412;2023-05-27T06:17:40;79.17;;;75.27;;
66189;SDS011;52992;52.084;5.412;2023-05-27T06:20:07;86.30;;;82.00;;
66189;SDS011;52992;52.084;5.412;2023-05-27T06:22:35;86.40;;;81.97;;
66189;SDS011;52992;52.084;5.412;2023-05-27T06:25:31;73.83;;;70.03;;
66189;SDS011;52992;52.084;5.412;2023-05-27T06:28:03;79.13;;;74.97;;
66189;SDS011;52992;52.084;5.412;2023-05-27T06:30:35;74.53;;;70.43;;
66189;SDS011;52992;52.084;5.412;2023-05-27T06:33:06;74.97;;;70.93;;
66189;SDS011;52992;52.084;5.412;2023-05-27T06:35:34;83.47;;;79.20;;
66189;SDS011;52992;52.084;5.412;2023-05-27T06:38:02;80.43;;;76.40;;
66189;SDS011;52992;52.084;5.412;2023-05-27T06:40:29;97.93;;;93.13;;
66189;SDS011;52992;52.084;5.412;2023-05-27T06:42:57;98.43;;;93.70;;
66189;SDS011;52992;52.084;5.412;2023-05-27T06:45:45;113.00;;;106.87;;
66189;SDS011;52992;52.084;5.412;2023-05-27T06:48:40;104.70;;;99.60;;
66189;SDS011;52992;52.084;5.412;2023-05-27T06:51:07;105.73;;;100.63;;
66189;SDS011;52992;52.084;5.412;2023-05-27T06:53:35;93.33;;;88.23;;
66189;SDS011;52992;52.084;5.412;2023-05-27T06:56:08;110.60;;;105.47;;
66189;SDS011;52992;52.084;5.412;2023-05-27T06:58:53;104.07;;;98.80;;
66189;SDS011;52992;52.084;5.412;2023-05-27T07:01:20;97.37;;;92.53;;
66189;SDS011;52992;52.084;5.412;2023-05-27T07:03:59;96.20;;;91.17;;
66189;SDS011;52992;52.084;5.412;2023-05-27T07:06:55;82.87;;;78.70;;
66189;SDS011;52992;52.084;5.412;2023-05-27T07:09:23;86.30;;;81.60;;
66189;SDS011;52992;52.084;5.412;2023-05-27T07:11:51;79.57;;;75.57;;
66189;SDS011;52992;52.084;5.412;2023-05-27T07:14:50;74.50;;;70.20;;
66189;SDS011;52992;52.084;5.412;2023-05-27T07:17:19;81.83;;;77.67;;
66189;SDS011;52992;52.084;5.412;2023-05-27T07:19:46;86.43;;;82.20;;
66189;SDS011;52992;52.084;5.412;2023-05-27T07:22:16;91.97;;;86.83;;
66189;SDS011;52992;52.084;5.412;2023-05-27T07:24:44;90.83;;;86.33;;
66189;SDS011;52992;52.084;5.412;2023-05-27T07:27:11;76.47;;;72.80;;
66189;SDS011;52992;52.084;5.412;2023-05-27T07:29:43;68.87;;;64.97;;
66189;SDS011;52992;52.084;5.412;2023-05-27T07:32:33;71.67;;;67.33;;
66189;SDS011;52992;52.084;5.412;2023-05-27T07:35:01;67.47;;;63.60;;
66189;SDS011;52992;52.084;5.412;2023-05-27T07:37:27;75.00;;;70.90;;
66189;SDS011;52992;52.084;5.412;2023-05-27T07:39:56;81.03;;;76.30;;
66189;SDS011;52992;52.084;5.412;2023-05-27T07:42:23;71.27;;;66.97;;
66189;SDS011;52992;52.084;5.412;2023-05-27T07:44:50;72.70;;;68.83;;
66189;SDS011;52992;52.084;5.412;2023-05-27T07:47:17;68.27;;;64.27;;
66189;SDS011;52992;52.084;5.412;2023-05-27T07:49:44;67.57;;;63.40;;
66189;SDS011;52992;52.084;5.412;2023-05-27T07:52:32;66.30;;;62.67;;
66189;SDS011;52992;52.084;5.412;2023-05-27T07:55:03;64.97;;;61.10;;
66189;SDS011;52992;52.084;5.412;2023-05-27T07:57:30;68.07;;;64.03;;
66189;SDS011;52992;52.084;5.412;2023-05-27T07:59:57;68.37;;;64.63;;
66189;SDS011;52992;52.084;5.412;2023-05-27T08:02:39;57.07;;;53.87;;
66189;SDS011;52992;52.084;5.412;2023-05-27T08:05:07;60.77;;;57.13;;
66189;SDS011;52992;52.084;5.412;2023-05-27T08:07:46;55.37;;;52.10;;
66189;SDS011;52992;52.084;5.412;2023-05-27T08:10:40;58.10;;;54.40;;
66189;SDS011;52992;52.084;5.412;2023-05-27T08:13:43;55.97;;;52.67;;
66189;SDS011;52992;52.084;5.412;2023-05-27T08:16:29;60.07;;;56.93;;
66189;SDS011;52992;52.084;5.412;2023-05-27T08:19:12;57.80;;;54.37;;
66189;SDS011;52992;52.084;5.412;2023-05-27T08:22:09;53.43;;;50.17;;
66189;SDS011;52992;52.084;5.412;2023-05-27T08:24:54;54.17;;;50.70;;
66189;SDS011;52992;52.084;5.412;2023-05-27T08:27:53;54.70;;;51.00;;
66189;SDS011;52992;52.084;5.412;2023-05-27T08:30:36;52.20;;;48.77;;
66189;SDS011;52992;52.084;5.412;2023-05-27T08:33:09;54.07;;;50.17;;
66189;SDS011;52992;52.084;5.412;2023-05-27T08:35:36;55.87;;;52.40;;
66189;SDS011;52992;52.084;5.412;2023-05-27T08:38:03;56.03;;;52.70;;
66189;SDS011;52992;52.084;5.412;2023-05-27T08:40:35;53.83;;;50.10;;
66189;SDS011;52992;52.084;5.412;2023-05-27T08:43:02;54.17;;;51.10;;
66189;SDS011;52992;52.084;5.412;2023-05-27T08:45:30;55.03;;;51.53;;
66189;SDS011;52992;52.084;5.412;2023-05-27T08:47:57;54.43;;;50.97;;
66189;SDS011;52992;52.084;5.412;2023-05-27T08:50:33;58.03;;;54.67;;
66189;SDS011;52992;52.084;5.412;2023-05-27T08:53:00;52.43;;;49.37;;
66189;SDS011;52992;52.084;5.412;2023-05-27T08:55:29;48.57;;;45.47;;
66189;SDS011;52992;52.084;5.412;2023-05-27T08:57:58;51.87;;;48.53;;
66189;SDS011;52992;52.084;5.412;2023-05-27T09:00:29;50.30;;;47.30;;
66189;SDS011;52992;52.084;5.412;2023-05-27T09:03:03;52.03;;;48.93;;
66189;SDS011;52992;52.084;5.412;2023-05-27T09:05:32;48.87;;;45.87;;
66189;SDS011;52992;52.084;5.412;2023-05-27T09:07:59;48.53;;;45.90;;
66189;SDS011;52992;52.084;5.412;2023-05-27T09:10:39;48.17;;;45.40;;
66189;SDS011;52992;52.084;5.412;2023-05-27T09:13:07;49.43;;;46.57;;
66189;SDS011;52992;52.084;5.412;2023-05-27T09:15:34;48.30;;;45.40;;
66189;SDS011;52992;52.084;5.412;2023-05-27T09:18:04;51.03;;;48.13;;
66189;SDS011;52992;52.084;5.412;2023-05-27T09:20:31;49.90;;;46.27;;
66189;SDS011;52992;52.084;5.412;2023-05-27T09:22:59;46.47;;;43.67;;
66189;SDS011;52992;52.084;5.412;2023-05-27T09:25:27;45.47;;;42.40;;
66189;SDS011;52992;52.084;5.412;2023-05-27T09:27:55;46.10;;;42.97;;
66189;SDS011;52992;52.084;5.412;2023-05-27T09:30:22;44.57;;;41.90;;
66189;SDS011;52992;52.084;5.412;2023-05-27T09:32:50;45.17;;;41.87;;
66189;SDS011;52992;52.084;5.412;2023-05-27T09:35:17;44.37;;;41.50;;
66189;SDS011;52992;52.084;5.412;2023-05-27T09:37:44;45.43;;;42.63;;
66189;SDS011;52992;52.084;5.412;2023-05-27T09:40:12;46.13;;;43.23;;
66189;SDS011;52992;52.084;5.412;2023-05-27T09:42:44;45.07;;;41.87;;
66189;SDS011;52992;52.084;5.412;2023-05-27T09:45:13;42.70;;;40.20;;
66189;SDS011;52992;52.084;5.412;2023-05-27T09:47:47;44.07;;;41.23;;
66189;SDS011;52992;52.084;5.412;2023-05-27T09:50:15;43.90;;;41.50;;
66189;SDS011;52992;52.084;5.412;2023-05-27T09:52:43;42.97;;;40.10;;
66189;SDS011;52992;52.084;5.412;2023-05-27T09:55:30;43.53;;;40.73;;
66189;SDS011;52992;52.084;5.412;2023-05-27T09:57:57;44.43;;;41.60;;
66189;SDS011;52992;52.084;5.412;2023-05-27T10:00:24;45.23;;;42.17;;
66189;SDS011;52992;52.084;5.412;2023-05-27T10:02:53;43.43;;;40.37;;
66189;SDS011;52992;52.084;5.412;2023-05-27T10:05:24;45.17;;;42.20;;
66189;SDS011;52992;52.084;5.412;2023-05-27T10:07:52;43.23;;;40.50;;
66189;SDS011;52992;52.084;5.412;2023-05-27T10:10:39;41.83;;;39.27;;
66189;SDS011;52992;52.084;5.412;2023-05-27T10:13:07;42.57;;;40.00;;
66189;SDS011;52992;52.084;5.412;2023-05-27T10:15:35;41.57;;;38.80;;
66189;SDS011;52992;52.084;5.412;2023-05-27T10:18:03;42.70;;;39.87;;
66189;SDS011;52992;52.084;5.412;2023-05-27T10:23:12;43.07;;;40.20;;
66189;SDS011;52992;52.084;5.412;2023-05-27T10:25:48;42.87;;;40.17;;
66189;SDS011;52992;52.084;5.412;2023-05-27T10:28:23;42.17;;;39.77;;
66189;SDS011;52992;52.084;5.412;2023-05-27T10:31:05;43.60;;;40.97;;
66189;SDS011;52992;52.084;5.412;2023-05-27T10:33:40;42.83;;;40.27;;
66189;SDS011;52992;52.084;5.412;2023-05-27T10:36:21;41.13;;;38.57;;
66189;SDS011;52992;52.084;5.412;2023-05-27T10:38:59;41.07;;;38.77;;
66189;SDS011;52992;52.084;5.412;2023-05-27T10:41:51;41.47;;;38.63;;
66189;SDS011;52992;52.084;5.412;2023-05-27T10:46:59;43.33;;;40.17;;
66189;SDS011;52992;52.084;5.412;2023-05-27T10:49:34;40.80;;;37.97;;
66189;SDS011;52992;52.084;5.412;2023-05-27T10:52:06;42.60;;;40.03;;
66189;SDS011;52992;52.084;5.412;2023-05-27T10:54:40;40.50;;;37.90;;
66189;SDS011;52992;52.084;5.412;2023-05-27T10:57:18;39.57;;;37.10;;
66189;SDS011;52992;52.084;5.412;2023-05-27T11:02:23;39.13;;;36.50;;
66189;SDS011;52992;52.084;5.412;2023-05-27T11:04:50;40.70;;;38.23;;
66189;SDS011;52992;52.084;5.412;2023-05-27T11:07:18;39.00;;;36.60;;
66189;SDS011;52992;52.084;5.412;2023-05-27T11:09:47;38.43;;;36.20;;
66189;SDS011;52992;52.084;5.412;2023-05-27T11:12:19;39.93;;;37.47;;
66189;SDS011;52992;52.084;5.412;2023-05-27T11:14:51;40.33;;;38.00;;
66189;SDS011;52992;52.084;5.412;2023-05-27T11:17:19;39.90;;;37.37;;
66189;SDS011;52992;52.084;5.412;2023-05-27T11:19:47;39.10;;;36.57;;
66189;SDS011;52992;52.084;5.412;2023-05-27T11:22:16;37.77;;;35.27;;
66189;SDS011;52992;52.084;5.412;2023-05-27T11:24:54;40.50;;;37.83;;
66189;SDS011;52992;52.084;5.412;2023-05-27T11:27:37;39.37;;;36.93;;
66189;SDS011;52992;52.084;5.412;2023-05-27T11:30:09;39.50;;;36.93;;
66189;SDS011;52992;52.084;5.412;2023-05-27T11:32:40;40.93;;;38.57;;
66189;SDS011;52992;52.084;5.412;2023-05-27T11:35:12;40.43;;;37.87;;
66189;SDS011;52992;52.084;5.412;2023-05-27T11:37:40;38.70;;;36.50;;
66189;SDS011;52992;52.084;5.412;2023-05-27T11:40:12;34.97;;;32.55;;
66189;SDS011;52992;52.084;5.412;2023-05-27T11:42:43;34.47;;;32.10;;
66189;SDS011;52992;52.084;5.412;2023-05-27T11:45:15;37.00;;;34.80;;
66189;SDS011;52992;52.084;5.412;2023-05-27T11:47:47;40.20;;;37.72;;
66189;SDS011;52992;52.084;5.412;2023-05-27T11:50:18;37.35;;;34.78;;
66189;SDS011;52992;52.084;5.412;2023-05-27T11:52:53;36.90;;;34.40;;
66189;SDS011;52992;52.084;5.412;2023-05-27T11:55:22;36.75;;;34.67;;
66189;SDS011;52992;52.084;5.412;2023-05-27T11:57:49;37.63;;;35.58;;
66189;SDS011;52992;52.084;5.412;2023-05-27T12:00:17;36.13;;;33.92;;
66189;SDS011;52992;52.084;5.412;2023-05-27T12:02:44;34.83;;;32.67;;
66189;SDS011;52992;52.084;5.412;2023-05-27T12:05:11;36.08;;;33.88;;
66189;SDS011;52992;52.084;5.412;2023-05-27T12:07:51;36.20;;;34.13;;
66189;SDS011;52992;52.084;5.412;2023-05-27T12:10:18;34.33;;;32.33;;
66189;SDS011;52992;52.084;5.412;2023-05-27T12:12:45;35.08;;;32.90;;
66189;SDS011;52992;52.084;5.412;2023-05-27T12:15:11;33.88;;;31.83;;
66189;SDS011;52992;52.084;5.412;2023-05-27T12:17:38;33.25;;;31.25;;
66189;SDS011;52992;52.084;5.412;2023-05-27T12:20:05;34.97;;;33.08;;
66189;SDS011;52992;52.084;5.412;2023-05-27T12:22:34;33.20;;;31.30;;
66189;SDS011;52992;52.084;5.412;2023-05-27T12:25:01;33.70;;;31.58;;
66189;SDS011;52992;52.084;5.412;2023-05-27T12:27:31;34.30;;;32.03;;
66189;SDS011;52992;52.084;5.412;2023-05-27T12:29:58;33.95;;;31.80;;
66189;SDS011;52992;52.084;5.412;2023-05-27T12:32:25;34.42;;;31.88;;
66189;SDS011;52992;52.084;5.412;2023-05-27T12:34:52;33.90;;;31.90;;
66189;SDS011;52992;52.084;5.412;2023-05-27T12:37:19;35.00;;;32.35;;
66189;SDS011;52992;52.084;5.412;2023-05-27T12:39:46;35.75;;;33.53;;
66189;SDS011;52992;52.084;5.412;2023-05-27T12:42:13;35.58;;;33.38;;
66189;SDS011;52992;52.084;5.412;2023-05-27T12:44:41;34.45;;;32.65;;
66189;SDS011;52992;52.084;5.412;2023-05-27T12:47:08;35.30;;;33.10;;
66189;SDS011;52992;52.084;5.412;2023-05-27T12:49:35;35.15;;;32.72;;
66189;SDS011;52992;52.084;5.412;2023-05-27T12:52:03;35.63;;;33.25;;
66189;SDS011;52992;52.084;5.412;2023-05-27T12:54:30;35.83;;;33.47;;
66189;SDS011;52992;52.084;5.412;2023-05-27T12:56:58;36.70;;;34.45;;
66189;SDS011;52992;52.084;5.412;2023-05-27T12:59:24;35.70;;;33.63;;
66189;SDS011;52992;52.084;5.412;2023-05-27T13:01:52;35.00;;;32.85;;
66189;SDS011;52992;52.084;5.412;2023-05-27T13:04:19;36.03;;;33.75;;
66189;SDS011;52992;52.084;5.412;2023-05-27T13:06:46;36.08;;;33.70;;
66189;SDS011;52992;52.084;5.412;2023-05-27T13:09:13;36.95;;;34.97;;
66189;SDS011;52992;52.084;5.412;2023-05-27T13:11:40;36.28;;;34.08;;
66189;SDS011;52992;52.084;5.412;2023-05-27T13:14:07;36.17;;;33.97;;
66189;SDS011;52992;52.084;5.412;2023-05-27T13:16:34;36.13;;;33.25;;
66189;SDS011;52992;52.084;5.412;2023-05-27T13:19:01;36.40;;;34.10;;
66189;SDS011;52992;52.084;5.412;2023-05-27T13:21:28;36.20;;;33.97;;
66189;SDS011;52992;52.084;5.412;2023-05-27T13:23:55;37.33;;;35.28;;
66189;SDS011;52992;52.084;5.412;2023-05-27T13:26:22;36.80;;;34.78;;
66189;SDS011;52992;52.084;5.412;2023-05-27T13:28:49;36.78;;;34.88;;
66189;SDS011;52992;52.084;5.412;2023-05-27T13:31:16;37.83;;;35.22;;
66189;SDS011;52992;52.084;5.412;2023-05-27T13:33:43;39.75;;;37.60;;
66189;SDS011;52992;52.084;5.412;2023-05-27T13:36:10;37.03;;;34.83;;
66189;SDS011;52992;52.084;5.412;2023-05-27T13:38:38;38.70;;;36.30;;
66189;SDS011;52992;52.084;5.412;2023-05-27T13:41:05;38.27;;;36.23;;
66189;SDS011;52992;52.084;5.412;2023-05-27T13:43:32;39.87;;;37.37;;
66189;SDS011;52992;52.084;5.412;2023-05-27T13:45:59;38.63;;;36.57;;
66189;SDS011;52992;52.084;5.412;2023-05-27T13:48:26;38.27;;;35.73;;
66189;SDS011;52992;52.084;5.412;2023-05-27T13:50:53;39.87;;;37.53;;
66189;SDS011;52992;52.084;5.412;2023-05-27T13:53:20;37.40;;;35.20;;
66189;SDS011;52992;52.084;5.412;2023-05-27T13:55:47;38.53;;;35.83;;
66189;SDS011;52992;52.084;5.412;2023-05-27T13:58:14;40.10;;;37.97;;
66189;SDS011;52992;52.084;5.412;2023-05-27T14:00:42;40.13;;;37.67;;
66189;SDS011;52992;52.084;5.412;2023-05-27T14:03:10;39.93;;;37.83;;
66189;SDS011;52992;52.084;5.412;2023-05-27T14:05:37;38.47;;;36.30;;
66189;SDS011;52992;52.084;5.412;2023-05-27T14:08:03;38.57;;;36.47;;
66189;SDS011;52992;52.084;5.412;2023-05-27T14:10:34;43.13;;;40.87;;
66189;SDS011;52992;52.084;5.412;2023-05-27T14:13:01;42.53;;;39.90;;
66189;SDS011;52992;52.084;5.412;2023-05-27T14:15:29;42.17;;;39.67;;
66189;SDS011;52992;52.084;5.412;2023-05-27T14:17:58;42.87;;;40.40;;
66189;SDS011;52992;52.084;5.412;2023-05-27T14:20:31;43.47;;;40.83;;
66189;SDS011;52992;52.084;5.412;2023-05-27T14:22:59;44.53;;;41.70;;
66189;SDS011;52992;52.084;5.412;2023-05-27T14:25:28;44.23;;;41.97;;
66189;SDS011;52992;52.084;5.412;2023-05-27T14:27:55;42.07;;;39.60;;
66189;SDS011;52992;52.084;5.412;2023-05-27T14:30:30;44.67;;;42.20;;
66189;SDS011;52992;52.084;5.412;2023-05-27T14:33:05;42.53;;;39.93;;
66189;SDS011;52992;52.084;5.412;2023-05-27T14:35:34;41.53;;;39.27;;
66189;SDS011;52992;52.084;5.412;2023-05-27T14:38:05;45.07;;;42.20;;
66189;SDS011;52992;52.084;5.412;2023-05-27T14:40:33;44.37;;;41.87;;
66189;SDS011;52992;52.084;5.412;2023-05-27T14:43:00;43.30;;;40.83;;
66189;SDS011;52992;52.084;5.412;2023-05-27T14:45:27;43.70;;;40.97;;
66189;SDS011;52992;52.084;5.412;2023-05-27T14:47:53;42.63;;;40.50;;